Time;durP1;ratioP1;P1;durP2;ratioP2;P2;SDS_P1;SDS_P2;PMS_P1;PMS_P2;Temp;Humidity;BMP_temperature;BMP_pressure;BME280_temperature;BME280_humidity;BME280_pressure;Samples;Min_cycle;Max_cycle;Signal;HPM_P1;HPM_P2
2022/08/04 00:00:25;;;;;;;3.67;2.75;;;;;;;22.70;nan;101046.44;2016529;29;20418;-73
2022/08/04 00:02:08;;;;;;;10.70;3.30;;;;;;;22.71;nan;101041.75;2018131;29;20790;-73
2022/08/04 00:03:18;;;;;;;6.25;3.10;;;;;;;;;;2024670;29;20643;-74
2022/08/04 00:04:39;;;;;;;5.00;2.83;;;;;;;22.69;nan;101050.28;2028069;29;20036;-74
2022/08/04 00:06:10;;;;;;;8.60;3.30;;;;;;;22.68;nan;101048.72;2022469;29;20155;-73
2022/08/04 00:07:25;;;;;;;5.10;2.88;;;;;;;22.67;nan;101036.94;2021589;29;20071;-73
2022/08/04 00:08:51;;;;;;;4.80;2.58;;;;;;;22.67;nan;101047.13;2028697;29;20041;-75
2022/08/04 00:10:03;;;;;;;3.97;2.92;;;;;;;22.67;nan;101047.13;2032745;29;20040;-74
2022/08/04 00:11:09;;;;;;;4.78;2.95;;;;;;;22.66;nan;101046.31;2023122;29;20095;-74
2022/08/04 00:12:15;;;;;;;4.80;2.80;;;;;;;22.66;nan;101040.81;2022865;29;20504;-74
2022/08/04 00:13:24;;;;;;;5.10;2.95;;;;;;;22.67;nan;101055.34;2024701;29;20044;-74
2022/08/04 00:14:29;;;;;;;5.10;2.80;;;;;;;22.67;nan;101053.41;2025184;29;20041;-75
2022/08/04 00:15:33;;;;;;;6.05;2.97;;;;;;;22.68;nan;101045.97;2025288;29;20051;-75
2022/08/04 00:16:40;;;;;;;6.10;3.10;;;;;;;22.66;nan;101045.50;2025073;29;20041;-74
2022/08/04 00:17:52;;;;;;;6.07;2.80;;;;;;;22.68;nan;101051.44;2025309;29;20036;-75
2022/08/04 00:18:58;;;;;;;11.80;3.10;;;;;;;22.68;nan;101051.44;2017438;29;20048;-73
2022/08/04 00:20:05;;;;;;;4.50;3.17;;;;;;;22.67;nan;101053.41;2018408;29;20048;-73
2022/08/04 00:21:18;;;;;;;8.40;2.58;;;;;;;22.68;nan;101054.97;2025188;29;20517;-74
2022/08/04 00:22:27;;;;;;;5.25;2.85;;;;;;;22.69;nan;101053.03;2019096;29;20041;-74
2022/08/04 00:23:34;;;;;;;4.10;2.67;;;;;;;22.70;nan;101057.38;2025506;29;20049;-74
2022/08/04 00:24:43;;;;;;;7.72;3.00;;;;;;;22.70;nan;101051.91;2033559;29;20044;-74
2022/08/04 00:25:47;;;;;;;6.28;2.97;;;;;;;22.72;nan;101054.28;2031141;29;20416;-74
2022/08/04 00:26:52;;;;;;;8.07;3.08;;;;;;;22.70;nan;101051.91;2024698;29;20060;-72
2022/08/04 00:28:01;;;;;;;4.90;2.88;;;;;;;22.71;nan;101053.50;2023902;29;20049;-73
2022/08/04 00:29:05;;;;;;;4.13;2.72;;;;;;;22.71;nan;101049.97;2009696;29;20052;-73
2022/08/04 00:30:11;;;;;;;5.82;2.65;;;;;;;22.72;nan;101055.09;2010268;29;20064;-74
2022/08/04 00:31:21;;;;;;;4.00;3.00;;;;;;;22.71;nan;101047.22;2030607;29;20048;-74
2022/08/04 00:32:25;;;;;;;4.50;2.72;;;;;;;22.72;nan;101054.28;2039434;29;20078;-73
2022/08/04 00:33:28;;;;;;;4.22;2.65;;;;;;;22.71;nan;101053.50;2033166;29;20044;-74
2022/08/04 00:34:34;;;;;;;3.05;2.53;;;;;;;22.71;nan;101050.75;2032623;29;20050;-74
2022/08/04 00:35:37;;;;;;;3.97;2.58;;;;;;;22.72;nan;101049.59;2025072;29;20040;-73
2022/08/04 00:36:43;;;;;;;5.53;2.60;;;;;;;22.74;nan;101068.44;2030721;29;20040;-74
2022/08/04 00:37:48;;;;;;;3.92;2.50;;;;;;;22.75;nan;101053.59;2026566;29;20116;-74
2022/08/04 00:38:54;;;;;;;5.70;3.22;;;;;;;22.74;nan;101046.53;2024911;29;20049;-74
2022/08/04 00:39:58;;;;;;;6.28;2.78;;;;;;;22.73;nan;101050.38;2032134;29;20055;-73
2022/08/04 00:41:14;;;;;;;25.08;3.03;;;;;;;22.74;nan;101052.00;2032451;29;20052;-73
2022/08/04 00:42:44;;;;;;;5.35;2.60;;;;;;;22.74;nan;101046.53;2029890;29;20048;-74
2022/08/04 00:43:58;;;;;;;7.68;2.42;;;;;;;22.73;nan;101053.94;2044026;29;20690;-74
2022/08/04 00:45:47;;;;;;;8.13;2.80;;;;;;;22.72;nan;101046.84;2045514;29;20042;-74
2022/08/04 00:47:14;;;;;;;3.15;2.65;;;;;;;22.73;nan;101045.72;2033185;29;20040;-73
2022/08/04 00:48:25;;;;;;;5.85;2.70;;;;;;;22.73;nan;101050.38;2032823;29;20409;-74
2022/08/04 00:49:49;;;;;;;7.30;2.83;;;;;;;22.71;nan;101041.75;2024557;29;20048;-74
2022/08/04 00:51:18;;;;;;;5.55;2.55;;;;;;;22.70;nan;101035.47;1996550;29;20054;-73
2022/08/04 00:52:38;;;;;;;4.97;2.42;;;;;;;22.71;nan;101041.75;2036058;29;20043;-74
2022/08/04 00:53:48;;;;;;;;;;;;;;;22.71;nan;101037.03;2040709;29;20043;-74
2022/08/04 00:55:18;;;;;;;4.28;2.78;;;;;;;22.70;nan;101040.13;2040620;29;19915;-74
2022/08/04 00:56:31;;;;;;;;;;;;;;;22.70;nan;101035.47;2009084;29;20052;-74
2022/08/04 00:57:50;;;;;;;3.67;2.50;;;;;;;22.71;nan;101031.56;2023032;29;19915;-74
2022/08/04 00:59:26;;;;;;;6.00;2.65;;;;;;;22.72;nan;101026.88;2019530;29;20421;-74
2022/08/04 01:00:39;;;;;;;4.60;2.55;;;;;;;22.71;nan;101031.56;2020618;29;20048;-75
2022/08/04 01:02:10;;;;;;;3.20;2.63;;;;;;;22.71;nan;101037.03;2026696;29;20075;-75
2022/08/04 01:03:42;;;;;;;3.88;2.63;;;;;;;22.69;nan;101039.31;2036297;29;20523;-74
2022/08/04 01:05:05;;;;;;;8.55;2.60;;;;;;;22.71;nan;101034.31;2021268;29;20052;-75
2022/08/04 01:06:42;;;;;;;5.70;2.85;;;;;;;22.72;nan;101022.19;2031347;29;20424;-74
2022/08/04 01:08:11;;;;;;;4.10;2.70;;;;;;;22.72;nan;101037.84;2033151;29;20047;-75
2022/08/04 01:09:44;;;;;;;4.72;2.78;;;;;;;22.70;nan;101040.94;2032196;29;20044;-74
2022/08/04 01:10:58;;;;;;;3.50;2.63;;;;;;;22.71;nan;101030.78;2028931;29;20040;-75
2022/08/04 01:12:15;;;;;;;4.35;2.63;;;;;;;22.68;nan;101038.53;2026345;29;20052;-75
2022/08/04 01:13:54;;;;;;;6.20;2.97;;;;;;;22.68;nan;101038.53;2034478;29;20055;-75
2022/08/04 01:15:37;;;;;;;4.93;2.95;;;;;;;22.69;nan;101039.31;2032407;29;20052;-74
2022/08/04 01:16:51;;;;;;;4.03;2.60;;;;;;;22.68;nan;101043.22;2023740;29;20049;-75
2022/08/04 01:18:00;;;;;;;4.38;2.88;;;;;;;22.66;nan;101046.31;2008821;29;20402;-74
2022/08/04 01:19:37;;;;;;;4.95;2.78;;;;;;;22.65;nan;101033.75;2014946;29;20093;-75
2022/08/04 01:21:03;;;;;;;7.38;3.00;;;;;;;22.65;nan;101038.44;2024696;29;20048;-75
2022/08/04 01:22:31;;;;;;;6.95;2.72;;;;;;;22.65;nan;101039.22;2031470;29;20062;-75
2022/08/04 01:23:51;;;;;;;4.93;2.60;;;;;;;22.65;nan;101039.22;2036957;29;20394;-75
2022/08/04 01:25:17;;;;;;;5.85;3.22;;;;;;;22.66;nan;101034.53;2034103;29;20051;-75
2022/08/04 01:26:38;;;;;;;4.85;3.05;;;;;;;;;;2032170;29;20044;-76
2022/08/04 01:28:13;;;;;;;3.63;2.72;;;;;;;22.66;nan;101029.06;2028744;29;20048;-75
2022/08/04 01:29:15;;;;;;;7.28;2.80;;;;;;;;;;2044680;28;20046;-76
2022/08/04 01:30:59;;;;;;;3.40;2.67;;;;;;;22.66;nan;101037.28;2039146;29;20435;-75
2022/08/04 01:32:06;;;;;;;2.88;2.50;;;;;;;22.67;nan;101036.16;2029864;29;20477;-76
2022/08/04 01:33:16;;;;;;;4.60;2.75;;;;;;;22.66;nan;101045.50;2032998;29;20558;-75
2022/08/04 01:34:20;;;;;;;4.95;2.65;;;;;;;22.65;nan;101036.50;2038751;29;20506;-76
2022/08/04 01:35:28;;;;;;;3.70;2.83;;;;;;;22.66;nan;101040.03;2023974;29;20053;-75
2022/08/04 01:36:35;;;;;;;3.17;2.55;;;;;;;22.65;nan;101044.72;2026856;29;20040;-76
2022/08/04 01:37:51;;;;;;;3.63;2.90;;;;;;;22.65;nan;101043.91;2032067;29;20425;-75
2022/08/04 01:38:54;;;;;;;5.70;2.63;;;;;;;22.65;nan;101060.38;2018704;29;20436;-74
2022/08/04 01:40:36;;;;;;;4.35;2.70;;;;;;;22.65;nan;101041.97;2024466;29;20714;-74
2022/08/04 01:42:19;;;;;;;6.55;2.95;;;;;;;22.65;nan;101035.69;2031553;29;20052;-75
2022/08/04 01:43:24;;;;;;;5.47;2.72;;;;;;;22.64;nan;101036.84;2022077;29;20528;-74
2022/08/04 01:44:46;;;;;;;5.57;2.50;;;;;;;22.63;nan;101047.00;2026706;29;20052;-74
2022/08/04 01:46:31;;;;;;;6.78;2.78;;;;;;;22.63;nan;101041.50;2032521;29;20048;-74
2022/08/04 01:47:39;;;;;;;4.05;2.45;;;;;;;22.63;nan;101040.72;2039327;29;20051;-74
2022/08/04 01:48:46;;;;;;;3.42;2.60;;;;;;;22.62;nan;101039.94;2039011;29;20476;-74
2022/08/04 01:49:50;;;;;;;3.20;2.78;;;;;;;22.61;nan;101037.56;2025003;29;20555;-74
2022/08/04 01:51:16;;;;;;;6.55;2.80;;;;;;;22.62;nan;101034.44;2031771;29;20056;-74
2022/08/04 01:52:40;;;;;;;8.00;2.60;;;;;;;22.63;nan;101024.28;2032500;29;20039;-73
2022/08/04 01:53:42;;;;;;;6.38;2.97;;;;;;;22.62;nan;101050.09;2031622;29;20048;-75
2022/08/04 01:54:45;;;;;;;8.73;2.95;;;;;;;;;;2040120;29;20031;-74
2022/08/04 01:56:08;;;;;;;3.58;2.53;;;;;;;22.60;nan;101024.97;2045404;29;20055;-75
2022/08/04 01:57:14;;;;;;;6.10;2.80;;;;;;;22.60;nan;101033.19;2046331;29;20046;-75
2022/08/04 01:58:18;;;;;;;6.07;2.53;;;;;;;22.59;nan;101039.84;2023324;29;20064;-75
2022/08/04 01:59:21;;;;;;;5.57;2.83;;;;;;;22.59;nan;101029.66;2017797;29;20040;-73
2022/08/04 02:00:28;;;;;;;4.82;2.40;;;;;;;22.60;nan;101035.94;2039356;29;20036;-74
2022/08/04 02:01:35;;;;;;;6.68;2.70;;;;;;;22.58;nan;101021.81;2027027;29;20442;-74
2022/08/04 02:02:59;;;;;;;3.72;2.90;;;;;;;22.58;nan;101030.03;2024123;29;20040;-75
2022/08/04 02:04:03;;;;;;;3.22;2.53;;;;;;;22.58;nan;101032.75;2005647;29;20057;-75
2022/08/04 02:05:12;;;;;;;6.10;3.25;;;;;;;22.58;nan;101032.75;2009854;29;20052;-74
2022/08/04 02:06:22;;;;;;;4.05;2.70;;;;;;;22.58;nan;101044.53;2018194;29;20064;-75
2022/08/04 02:07:38;;;;;;;4.32;2.90;;;;;;;22.59;nan;101034.34;2032237;29;20618;-75
2022/08/04 02:09:02;;;;;;;3.88;2.75;;;;;;;22.58;nan;101032.75;2040049;29;20039;-75
2022/08/04 02:10:12;;;;;;;4.45;2.88;;;;;;;22.57;nan;101025.66;2044803;29;20047;-74
2022/08/04 02:11:21;;;;;;;7.18;3.05;;;;;;;22.58;nan;101032.75;2031657;29;20048;-75
2022/08/04 02:12:53;;;;;;;5.10;2.83;;;;;;;22.57;nan;101037.44;2032860;29;20436;-75
2022/08/04 02:14:39;;;;;;;4.30;2.50;;;;;;;22.56;nan;101030.34;2030896;29;20052;-74
2022/08/04 02:16:01;;;;;;;5.88;2.95;;;;;;;22.56;nan;101029.56;2021659;29;20044;-74
2022/08/04 02:17:10;;;;;;;6.65;2.95;;;;;;;22.56;nan;101024.09;2026883;29;20039;-75
2022/08/04 02:18:36;;;;;;;6.43;2.72;;;;;;;22.56;nan;101029.56;2025487;29;20043;-75
2022/08/04 02:19:59;;;;;;;4.53;2.88;;;;;;;22.55;nan;101028.78;2007001;29;20514;-75
2022/08/04 02:21:02;;;;;;;5.25;2.88;;;;;;;22.55;nan;101034.25;2014578;29;20049;-74
2022/08/04 02:22:16;;;;;;;4.75;2.67;;;;;;;22.56;nan;101035.03;2024135;29;20061;-75
2022/08/04 02:23:35;;;;;;;4.80;3.08;;;;;;;22.56;nan;101035.03;2033832;29;20056;-75
2022/08/04 02:24:58;;;;;;;;;;;;;;;22.56;nan;101024.88;2026981;29;20063;-75
2022/08/04 02:26:03;;;;;;;5.32;2.75;;;;;;;22.53;nan;101025.56;2014438;29;19923;-75
2022/08/04 02:27:12;;;;;;;6.30;2.72;;;;;;;22.53;nan;101024.78;2016856;29;20556;-74
2022/08/04 02:28:49;;;;;;;6.35;3.13;;;;;;;22.53;nan;101025.56;2031562;29;20577;-75
2022/08/04 02:30:24;;;;;;;2.90;2.60;;;;;;;22.52;nan;101029.47;2027332;29;20052;-74
2022/08/04 02:31:51;;;;;;;7.95;3.03;;;;;;;22.52;nan;101025.94;2031462;29;20044;-75
2022/08/04 02:33:02;;;;;;;4.40;3.00;;;;;;;22.52;nan;101021.25;2030623;29;20520;-75
2022/08/04 02:34:21;;;;;;;5.63;3.35;;;;;;;22.52;nan;101021.25;2033498;29;20060;-75
2022/08/04 02:35:26;;;;;;;3.92;2.90;;;;;;;22.51;nan;101038.84;2014544;29;20041;-75
2022/08/04 02:36:58;;;;;;;7.85;3.10;;;;;;;22.51;nan;101021.56;2002459;29;20038;-75
2022/08/04 02:38:28;;;;;;;4.93;2.75;;;;;;;22.51;nan;101027.06;2023674;29;20052;-76
2022/08/04 02:39:37;;;;;;;3.15;2.80;;;;;;;22.47;nan;101037.13;2012839;29;20552;-76
2022/08/04 02:40:40;;;;;;;5.50;2.80;;;;;;;22.47;nan;101059.06;2018235;29;20528;-75
2022/08/04 02:41:46;;;;;;;4.95;2.83;;;;;;;22.47;nan;101026.16;2024428;29;20037;-75
2022/08/04 02:42:49;;;;;;;6.43;2.80;;;;;;;22.46;nan;101019.09;2017272;29;20052;-76
2022/08/04 02:43:56;;;;;;;5.72;3.08;;;;;;;22.42;nan;101013.53;2017254;29;20037;-76
2022/08/04 02:45:00;;;;;;;5.75;2.90;;;;;;;22.42;nan;101041.72;2017464;29;20045;-76
2022/08/04 02:46:02;;;;;;;3.92;2.95;;;;;;;22.42;nan;101019.81;2024129;29;20424;-75
2022/08/04 02:47:05;;;;;;;6.13;2.83;;;;;;;22.42;nan;101011.59;2032092;29;20052;-76
2022/08/04 02:48:10;;;;;;;6.28;2.80;;;;;;;22.40;nan;101011.13;2047193;28;20777;-76
2022/08/04 02:49:18;;;;;;;4.93;3.00;;;;;;;22.38;nan;101029.88;2045439;29;20062;-73
2022/08/04 02:50:20;;;;;;;5.55;2.90;;;;;;;22.39;nan;101014.22;2032463;29;20432;-73
2022/08/04 02:51:28;;;;;;;4.82;2.70;;;;;;;22.40;nan;101005.63;2031973;29;20051;-74
2022/08/04 02:52:31;;;;;;;3.08;2.78;;;;;;;22.40;nan;101011.13;2031794;29;20523;-75
2022/08/04 02:53:36;;;;;;;3.20;2.75;;;;;;;22.40;nan;101013.84;2024374;29;20516;-73
2022/08/04 02:54:46;;;;;;;6.78;3.28;;;;;;;22.41;nan;101012.72;2024708;29;20056;-73
2022/08/04 02:55:53;;;;;;;5.20;3.42;;;;;;;22.39;nan;101012.28;2030805;29;20051;-75
2022/08/04 02:56:56;;;;;;;6.00;3.28;;;;;;;22.40;nan;101010.31;2022538;29;20052;-74
2022/08/04 02:58:02;;;;;;;4.22;2.72;;;;;;;22.38;nan;101007.94;2026011;29;20047;-75
2022/08/04 02:59:10;;;;;;;3.33;2.78;;;;;;;22.40;nan;101005.63;2031964;29;20044;-74
2022/08/04 03:00:13;;;;;;;5.50;3.25;;;;;;;22.39;nan;101004.06;2024415;29;20055;-74
2022/08/04 03:01:16;;;;;;;4.03;3.08;;;;;;;22.39;nan;101012.28;2035797;29;20544;-74
2022/08/04 03:02:28;;;;;;;6.05;2.85;;;;;;;22.40;nan;101015.81;2039704;29;20087;-74
2022/08/04 03:03:44;;;;;;;4.68;3.28;;;;;;;22.39;nan;101020.50;2038094;29;20032;-74
2022/08/04 03:04:59;;;;;;;5.00;3.08;;;;;;;22.39;nan;101009.53;2031946;29;20380;-74
2022/08/04 03:06:12;;;;;;;6.88;2.63;;;;;;;22.41;nan;101014.66;2033704;29;20051;-74
2022/08/04 03:07:32;;;;;;;7.78;2.90;;;;;;;22.41;nan;101011.91;2022741;29;20418;-74
2022/08/04 03:09:29;;;;;;;3.30;3.00;;;;;;;22.42;nan;101005.31;2031782;29;20043;-74
2022/08/04 03:11:02;;;;;;;4.25;2.90;;;;;;;22.42;nan;101006.09;2014727;29;20056;-74
2022/08/04 03:12:50;;;;;;;5.22;2.97;;;;;;;22.42;nan;101003.34;2012646;29;20056;-74
2022/08/04 03:14:28;;;;;;;7.15;3.33;;;;;;;22.41;nan;101011.91;2032487;29;20040;-74
2022/08/04 03:15:45;;;;;;;7.10;3.10;;;;;;;22.41;nan;101012.72;2039716;29;20043;-75
2022/08/04 03:17:09;;;;;;;6.07;3.00;;;;;;;22.42;nan;101003.34;2046333;29;20047;-74
2022/08/04 03:18:10;;;;;;;3.80;2.80;;;;;;;22.41;nan;101010.00;2019523;29;20056;-73
2022/08/04 03:19:43;;;;;;;8.50;3.20;;;;;;;22.41;nan;101023.69;2016594;29;20049;-74
2022/08/04 03:20:59;;;;;;;3.35;2.92;;;;;;;22.42;nan;101013.53;2031730;29;20044;-76
2022/08/04 03:22:03;;;;;;;6.78;3.30;;;;;;;22.43;nan;101015.13;2031663;29;20055;-74
2022/08/04 03:23:29;;;;;;;7.25;2.90;;;;;;;22.42;nan;101019.81;2024471;29;20060;-74
2022/08/04 03:25:20;;;;;;;8.13;3.03;;;;;;;22.42;nan;101019.00;2019251;29;20520;-74
2022/08/04 03:26:27;;;;;;;5.85;3.05;;;;;;;22.41;nan;101029.19;2000359;29;20074;-74
2022/08/04 03:27:42;;;;;;;3.90;3.13;;;;;;;22.42;nan;101013.53;2001906;29;20050;-74
2022/08/04 03:29:12;;;;;;;4.05;2.95;;;;;;;22.39;nan;101014.22;2025425;29;20456;-75
2022/08/04 03:30:26;;;;;;;5.55;2.97;;;;;;;22.40;nan;101021.28;2026935;29;20053;-74
2022/08/04 03:32:11;;;;;;;5.90;3.08;;;;;;;22.40;nan;101022.06;2033417;29;20059;-75
2022/08/04 03:33:47;;;;;;;3.95;3.10;;;;;;;22.42;nan;101022.53;2017330;29;20517;-74
2022/08/04 03:35:29;;;;;;;7.57;3.17;;;;;;;22.44;nan;101017.50;2032191;29;20075;-75
2022/08/04 03:37:09;;;;;;;3.47;2.90;;;;;;;22.50;nan;101026.25;2018564;29;20060;-75
2022/08/04 03:38:28;;;;;;;4.18;3.05;;;;;;;22.57;nan;101022.94;2024967;29;20051;-75
2022/08/04 03:40:04;;;;;;;5.32;3.08;;;;;;;22.68;nan;101018.56;2027240;29;20040;-74
2022/08/04 03:41:36;;;;;;;6.03;3.13;;;;;;;22.85;nan;101011.97;2037658;29;20039;-74
2022/08/04 03:42:45;;;;;;;4.57;3.40;;;;;;;23.00;nan;101021.41;2025558;29;20049;-75
2022/08/04 03:44:24;;;;;;;3.03;2.70;;;;;;;23.11;nan;101022.50;2019758;29;20048;-75
2022/08/04 03:45:53;;;;;;;3.78;3.10;;;;;;;23.23;nan;101013.38;2037936;29;20039;-75
2022/08/04 03:47:34;;;;;;;6.38;3.40;;;;;;;23.36;nan;101028.63;2033166;29;20040;-74
2022/08/04 03:49:07;;;;;;;5.80;3.17;;;;;;;23.47;nan;101023.38;2032835;29;20044;-75
2022/08/04 03:50:26;;;;;;;4.72;3.22;;;;;;;23.54;nan;101031.78;2033480;29;20479;-75
2022/08/04 03:53:51;;;;;;;5.95;3.05;;;;;;;23.59;nan;101026.03;2023913;29;20057;-75
2022/08/04 03:55:13;;;;;;;8.07;3.33;;;;;;;23.51;nan;101024.25;2022974;29;20051;-75
2022/08/04 03:56:43;;;;;;;5.63;3.55;;;;;;;23.38;nan;101025.50;2033069;29;20035;-75
2022/08/04 03:58:05;;;;;;;8.45;3.35;;;;;;;23.37;nan;101024.72;2021140;29;20048;-75
2022/08/04 03:59:45;;;;;;;8.55;3.15;;;;;;;23.39;nan;101027.88;2025007;29;20068;-75
2022/08/04 04:01:19;;;;;;;8.02;3.58;;;;;;;23.35;nan;101033.28;2021064;29;20049;-75
2022/08/04 04:02:50;;;;;;;10.88;3.33;;;;;;;23.41;nan;101030.28;2029104;29;20044;-75
2022/08/04 04:04:25;;;;;;;4.40;3.28;;;;;;;23.58;nan;101033.47;2033729;29;20055;-76
2022/08/04 04:05:54;;;;;;;5.32;3.20;;;;;;;23.81;nan;101033.66;2033761;29;20040;-75
2022/08/04 04:07:04;;;;;;;6.38;3.30;;;;;;;23.93;nan;101030.00;2032999;29;20473;-74
2022/08/04 04:08:34;;;;;;;5.57;3.00;;;;;;;24.01;nan;101030.94;2033146;29;20036;-76
2022/08/04 04:10:17;;;;;;;4.05;3.30;;;;;;;24.08;nan;101035.78;2025160;29;20049;-76
2022/08/04 04:11:49;;;;;;;5.60;3.10;;;;;;;24.19;nan;101032.13;2031118;29;20044;-75
2022/08/04 04:13:12;;;;;;;4.65;3.60;;;;;;;24.32;nan;101034.75;2032783;29;20059;-75
2022/08/04 04:14:44;;;;;;;7.53;3.25;;;;;;;24.48;nan;101046.50;2027748;29;20060;-75
2022/08/04 04:16:11;;;;;;;5.03;3.28;;;;;;;24.58;nan;101037.69;2024774;29;20036;-76
2022/08/04 04:17:45;;;;;;;5.78;3.63;;;;;;;24.68;nan;101042.59;2025023;29;20112;-76
2022/08/04 04:19:28;;;;;;;6.18;3.80;;;;;;;24.78;nan;101045.91;2032502;29;20055;-75
2022/08/04 04:20:30;;;;;;;4.07;3.42;;;;;;;24.88;nan;101043.38;2028589;29;20050;-75
2022/08/04 04:22:06;;;;;;;3.83;3.40;;;;;;;24.93;nan;101037.56;2032947;29;20102;-76
2022/08/04 04:23:47;;;;;;;7.65;3.60;;;;;;;25.01;nan;101019.25;2025102;29;20587;-75
2022/08/04 04:25:18;;;;;;;8.05;3.63;;;;;;;25.16;nan;101012.88;2027629;29;20052;-76
2022/08/04 04:27:10;;;;;;;6.15;3.63;;;;;;;25.29;nan;101015.44;2024401;29;20094;-75
2022/08/04 04:28:23;;;;;;;9.20;3.33;;;;;;;25.37;nan;101012.41;2047184;29;20106;-75
2022/08/04 04:29:49;;;;;;;6.45;3.78;;;;;;;25.48;nan;101011.81;2046932;29;20043;-76
2022/08/04 04:31:20;;;;;;;5.82;3.50;;;;;;;25.47;nan;101013.75;2032722;29;20044;-75
2022/08/04 04:32:34;;;;;;;7.28;3.33;;;;;;;25.50;nan;101015.78;2035995;29;20048;-75
2022/08/04 04:34:05;;;;;;;5.38;3.50;;;;;;;25.54;nan;101018.59;2030940;29;20532;-74
2022/08/04 04:35:12;;;;;;;5.55;2.83;;;;;;;25.59;nan;101021.81;2036584;29;20419;-75
2022/08/04 04:36:43;;;;;;;4.50;3.33;;;;;;;25.64;nan;101020.72;2031370;29;20055;-76
2022/08/04 04:38:08;;;;;;;6.22;3.50;;;;;;;25.72;nan;101016.09;2022980;29;20044;-75
2022/08/04 04:39:16;;;;;;;11.35;3.53;;;;;;;25.79;nan;101022.53;2031784;29;20048;-76
2022/08/04 04:40:47;;;;;;;6.22;3.63;;;;;;;25.89;nan;101015.63;2018049;29;20040;-75
2022/08/04 04:42:07;;;;;;;5.65;3.65;;;;;;;26.00;nan;101016.53;2024514;29;20104;-75
2022/08/04 04:43:51;;;;;;;10.13;3.70;;;;;;;26.09;nan;101014.31;2035079;29;20066;-75
2022/08/04 04:44:59;;;;;;;8.57;3.92;;;;;;;26.19;nan;101012.06;2025681;29;20080;-75
2022/08/04 04:46:36;;;;;;;5.00;3.97;;;;;;;26.25;nan;101010.56;2025482;29;20409;-75
2022/08/04 04:48:07;;;;;;;10.98;3.90;;;;;;;26.28;nan;101007.84;2024710;29;20053;-75
2022/08/04 04:49:30;;;;;;;8.05;4.60;;;;;;;26.34;nan;101013.84;2021477;29;20036;-76
2022/08/04 04:50:36;;;;;;;7.32;3.63;;;;;;;26.41;nan;101007.63;2028091;29;20055;-76
2022/08/04 04:52:02;;;;;;;9.38;3.63;;;;;;;26.45;nan;101023.06;2030570;29;20040;-75
2022/08/04 04:53:25;;;;;;;10.73;3.55;;;;;;;26.52;nan;101016.84;2032473;29;20062;-75
2022/08/04 04:55:12;;;;;;;5.03;3.72;;;;;;;26.63;nan;101016.97;2032293;29;20420;-75
2022/08/04 04:56:28;;;;;;;6.40;3.25;;;;;;;26.71;nan;101021.41;2029580;29;20063;-75
2022/08/04 04:57:35;;;;;;;5.18;3.85;;;;;;;26.80;nan;101024.66;2024347;29;20067;-75
2022/08/04 04:58:37;;;;;;;6.25;3.88;;;;;;;26.86;nan;101025.91;2026242;29;20044;-76
2022/08/04 04:59:59;;;;;;;7.05;3.67;;;;;;;26.90;nan;101023.97;2024482;29;20044;-76
2022/08/04 05:01:30;;;;;;;6.97;3.38;;;;;;;26.98;nan;101020.09;2025376;29;20063;-76
2022/08/04 05:02:53;;;;;;;4.57;3.58;;;;;;;27.07;nan;101024.53;2032137;29;20500;-75
2022/08/04 05:04:25;;;;;;;7.82;3.67;;;;;;;27.12;nan;101021.41;2029716;29;20052;-75
2022/08/04 05:06:17;;;;;;;10.13;3.65;;;;;;;27.18;nan;101011.66;2024980;29;20469;-75
2022/08/04 05:07:36;;;;;;;8.45;3.80;;;;;;;27.25;nan;101017.22;2031102;29;20047;-75
2022/08/04 05:08:56;;;;;;;4.57;3.47;;;;;;;27.37;nan;101024.44;2021755;29;20473;-74
2022/08/04 05:10:37;;;;;;;5.65;3.75;;;;;;;27.44;nan;101024.47;2021610;29;20057;-75
2022/08/04 05:11:50;;;;;;;8.32;4.15;;;;;;;27.49;nan;101019.41;2021374;29;20428;-75
2022/08/04 05:13:15;;;;;;;6.53;4.05;;;;;;;27.55;nan;101024.56;2016570;29;20061;-75
2022/08/04 05:14:22;;;;;;;10.27;4.35;;;;;;;27.59;nan;101019.88;2030351;29;20042;-75
2022/08/04 05:15:30;;;;;;;11.38;3.75;;;;;;;27.63;nan;101021.47;2023831;29;20048;-75
2022/08/04 05:16:40;;;;;;;9.48;3.90;;;;;;;27.68;nan;101020.31;2025904;29;20040;-75
2022/08/04 05:17:50;;;;;;;5.15;3.58;;;;;;;27.74;nan;101027.06;2039228;29;20070;-75
2022/08/04 05:19:05;;;;;;;5.53;3.80;;;;;;;27.68;nan;101023.06;2037525;29;20409;-76
2022/08/04 05:20:41;;;;;;;6.47;3.72;;;;;;;27.71;nan;101017.59;2024908;29;20048;-75
2022/08/04 05:22:23;;;;;;;9.07;3.80;;;;;;;27.84;nan;101020.84;2032774;29;20345;-75
2022/08/04 05:23:28;;;;;;;5.07;4.07;;;;;;;27.87;nan;101017.31;2026554;29;20052;-76
2022/08/04 05:24:58;;;;;;;6.10;3.83;;;;;;;27.91;nan;101018.13;2024988;29;20051;-76
2022/08/04 05:26:18;;;;;;;8.13;4.10;;;;;;;28.00;nan;101022.53;2031194;29;20052;-75
2022/08/04 05:27:27;;;;;;;8.63;3.97;;;;;;;27.97;nan;101015.78;2024204;29;20048;-76
2022/08/04 05:28:40;;;;;;;5.00;3.88;;;;;;;28.08;nan;101021.38;2019299;29;20158;-75
2022/08/04 05:29:50;;;;;;;5.30;3.80;;;;;;;28.14;nan;101020.59;2025391;29;20055;-76
2022/08/04 05:31:00;;;;;;;5.00;3.72;;;;;;;28.14;nan;101017.06;2032110;29;20040;-75
2022/08/04 05:32:11;;;;;;;10.18;3.90;;;;;;;28.18;nan;101018.69;2032034;29;20121;-75
2022/08/04 05:33:18;;;;;;;8.38;4.15;;;;;;;28.23;nan;101014.72;2041406;29;20588;-76
2022/08/04 05:34:28;;;;;;;7.30;4.28;;;;;;;28.29;nan;101018.72;2037995;29;20135;-76
2022/08/04 05:35:41;;;;;;;9.27;4.05;;;;;;;28.35;nan;101011.63;2030946;29;20048;-75
2022/08/04 05:36:53;;;;;;;10.90;4.25;;;;;;;28.41;nan;101004.56;2047739;29;20054;-75
2022/08/04 05:37:56;;;;;;;5.90;3.72;;;;;;;28.51;nan;101007.75;2029933;29;20584;-75
2022/08/04 05:39:01;;;;;;;7.88;3.80;;;;;;;28.51;nan;101014.09;2017274;29;20056;-75
2022/08/04 05:40:07;;;;;;;9.68;4.30;;;;;;;28.56;nan;101021.19;2032185;29;20043;-75
2022/08/04 05:41:10;;;;;;;14.07;4.22;;;;;;;28.57;nan;101011.75;2040029;29;20126;-75
2022/08/04 05:42:16;;;;;;;6.40;4.18;;;;;;;28.60;nan;101016.50;2032212;29;20056;-75
2022/08/04 05:43:20;;;;;;;20.45;4.35;;;;;;;28.52;nan;101018.44;2038539;29;20129;-75
2022/08/04 05:44:25;;;;;;;6.55;4.10;;;;;;;28.54;nan;101012.53;2032144;29;20043;-75
2022/08/04 05:45:28;;;;;;;9.20;3.78;;;;;;;28.59;nan;101010.16;2024742;29;20059;-76
2022/08/04 05:46:30;;;;;;;6.70;3.83;;;;;;;28.69;nan;101014.16;2027576;29;20048;-76
2022/08/04 05:47:33;;;;;;;13.63;4.32;;;;;;;28.79;nan;101018.13;2024210;29;20040;-76
2022/08/04 05:48:38;;;;;;;6.30;3.60;;;;;;;28.87;nan;101014.94;2024224;29;20048;-75
2022/08/04 05:49:42;;;;;;;8.32;4.05;;;;;;;28.95;nan;101013.00;2037971;29;20055;-76
2022/08/04 05:50:46;;;;;;;6.55;4.07;;;;;;;29.00;nan;101020.13;2032027;29;20071;-76
2022/08/04 05:51:49;;;;;;;10.55;3.88;;;;;;;29.06;nan;101011.06;2016868;29;20092;-76
2022/08/04 05:52:53;;;;;;;8.02;4.00;;;;;;;29.11;nan;101012.66;2009417;29;20065;-75
2022/08/04 05:53:57;;;;;;;11.27;3.92;;;;;;;29.18;nan;101023.72;2032549;29;20551;-75
2022/08/04 05:55:05;;;;;;;7.70;4.50;;;;;;;29.17;nan;101013.84;2038354;29;20098;-76
2022/08/04 05:56:11;;;;;;;7.60;3.70;;;;;;;29.23;nan;101015.03;2012995;29;20072;-75
2022/08/04 05:57:15;;;;;;;10.48;4.00;;;;;;;29.30;nan;101012.25;2009674;29;20042;-75
2022/08/04 05:58:21;;;;;;;6.40;3.80;;;;;;;29.39;nan;101013.84;2024917;29;20580;-74
2022/08/04 05:59:26;;;;;;;7.68;3.83;;;;;;;29.42;nan;101021.38;2039934;29;20036;-75
2022/08/04 06:00:29;;;;;;;9.50;4.22;;;;;;;29.43;nan;101012.66;2038808;29;20047;-75
2022/08/04 06:01:34;;;;;;;7.75;3.85;;;;;;;29.48;nan;101015.03;2032001;29;20048;-75
2022/08/04 06:02:40;;;;;;;9.93;3.78;;;;;;;29.53;nan;101013.81;2031401;29;20044;-75
2022/08/04 06:03:46;;;;;;;6.68;3.78;;;;;;;29.56;nan;101015.81;2032720;29;20056;-75
2022/08/04 06:04:51;;;;;;;5.57;4.00;;;;;;;29.63;nan;101018.59;2038337;29;20047;-76
2022/08/04 06:05:54;;;;;;;6.00;3.70;;;;;;;29.68;nan;101012.66;2028941;29;20590;-76
2022/08/04 06:06:56;;;;;;;6.22;3.63;;;;;;;29.67;nan;101016.63;2009087;29;20052;-76
2022/08/04 06:08:02;;;;;;;7.93;4.40;;;;;;;29.62;nan;101013.47;2017026;29;20056;-75
2022/08/04 06:09:10;;;;;;;10.27;4.45;;;;;;;29.60;nan;101011.03;2024872;29;20068;-75
2022/08/04 06:10:12;;;;;;;8.32;3.80;;;;;;;29.70;nan;101012.28;2024374;29;20052;-75
2022/08/04 06:11:23;;;;;;;7.47;3.92;;;;;;;29.78;nan;101019.38;2031963;29;20202;-76
2022/08/04 06:12:31;;;;;;;7.53;4.13;;;;;;;29.86;nan;101017.38;2030827;29;20048;-76